Flight Track Log - Related Links

Times and Time Zones

All times are in EDT time to prevent confusion due to time zone crossing. See the DAL110 flight status page for this flight to view local times or setup timezone preferences in your user account.

Time Position Orientation Groundspeed Altitude Reporting Facility
EDT Latitude Longitude Course Direction KTS MPH feet Rate Location/Type
Fri 08:38:51 AM 33.6470 -84.4620 270° West 173 199 2,600  Level FlightAware ADS-B
Fri 08:39:21 AM 33.6520 -84.4900 282° West 208 239 3,300 1,900 Climbing FlightAware ADS-B
Fri 08:39:51 AM 33.6590 -84.5260 283° West 236 272 4,500 2,727 Climbing FlightAware ADS-B
Fri 08:40:16 AM 33.6660 -84.5580 285° West 245 282 5,800 3,055 Climbing FlightAware ADS-B
Fri 08:40:46 AM 33.6730 -84.5960 282° West 250 288 7,300 3,333 Climbing FlightAware ADS-B
Fri 08:41:01 AM 33.6770 -84.6240 280° West 256 295 8,300 2,836 Climbing FlightAware ADS-B
Fri 08:41:41 AM 33.6860 -84.6760 282° West 265 305 9,900 2,550 Climbing FlightAware ADS-B
Fri 08:42:21 AM 33.6960 -84.7380 281° West 284 327 11,700 2,025 Climbing FlightAware ADS-B
Fri 08:43:01 AM 33.6950 -84.8050 269° West 324 373 12,600 1,835 Climbing FlightAware ADS-B
Fri 08:43:46 AM 33.7050 -84.8820 279° West 350 403 14,300 2,600 Climbing FlightAware ADS-B
Fri 08:44:31 AM 33.7230 -84.9760 283° West 355 409 16,500 3,150 Climbing FlightAware ADS-B
Fri 08:45:06 AM 33.7350 -85.0450 282° West 362 417 18,500 3,120 Climbing FlightAware ADS-B
Fri 08:45:46 AM 33.7490 -85.1260 282° West 367 422 20,400 2,733 Climbing FlightAware ADS-B
Fri 08:46:36 AM 33.7680 -85.2330 282° West 389 448 22,600 1,714 Climbing FlightAware ADS-B
Fri 08:47:31 AM 33.7850 -85.3370 281° West 392 451 23,400 2,653 Climbing FlightAware ADS-B
Fri 08:48:11 AM 33.8010 -85.4290 282° West 392 451 26,800 3,000 Climbing FlightAware ADS-B
Fri 08:49:01 AM 33.8200 -85.5420 281° West 410 472 27,900 1,516 Climbing FlightAware ADS-B
Fri 08:49:46 AM 33.8350 -85.6330 281° West 414 476 29,200 2,171 Climbing FlightAware ADS-B
Fri 08:50:46 AM 33.8740 -85.7720 289° West 426 490 31,700 1,500 Climbing FlightAware ADS-B
Fri 08:51:26 AM 33.8950 -85.8490 288° West 426 490 31,700  Level FlightAware ADS-B
Fri 08:52:06 AM 33.9160 -85.9260 288° West 426 490 31,700 3,520 Level FlightAware ADS-B
Fri 08:52:41 AM 33.9626 -86.0393 296° West 412 474 36,100 5,262 Climbing FlightAware ADS-B
Fri 08:53:11 AM 33.9828 -86.1038 291° West 402 463 37,400 1,839 Climbing FlightAware ADS-B
Fri 08:53:43 AM 34.0013 -86.1695 289° West 398 458 38,000 267 Climbing FlightAware ADS-B
Fri 08:55:26 AM 34.0590 -86.3720 289° West 405 466 38,000  Level FlightAware ADS-B
Fri 08:56:21 AM 34.0920 -86.4920 288° West 402 463 38,000  Level FlightAware ADS-B
Fri 08:57:01 AM 34.0980 -86.5100 292° West 403 464 38,000  Level FlightAware ADS-B
Fri 08:57:32 AM 34.1384 -86.6563 288° West 404 465 38,000  Level FlightAware ADS-B
Fri 08:58:09 AM 34.1603 -86.7345 289° West 404 465 38,000  Level FlightAware ADS-B
Fri 08:58:56 AM 34.1800 -86.8030 289° West 405 466 38,000  Level FlightAware ADS-B
Fri 08:59:51 AM 34.2180 -86.9420 288° West 399 459 38,000  Level FlightAware ADS-B
Fri 09:00:31 AM 34.2380 -87.0140 289° West 399 459 38,000  Level FlightAware ADS-B
Fri 09:01:11 AM 34.2590 -87.0860 289° West 399 459 38,000  Level FlightAware ADS-B
Fri 09:01:51 AM 34.2790 -87.1570 289° West 399 459 38,000  Level FlightAware ADS-B
Fri 09:02:31 AM 34.3000 -87.2290 289° West 399 459 38,000  Level FlightAware ADS-B
Fri 09:03:21 AM 34.3250 -87.3190 289° West 399 459 38,000  Level FlightAware ADS-B
Fri 09:04:01 AM 34.3450 -87.3910 289° West 399 459 38,000  Level FlightAware ADS-B
Fri 09:04:41 AM 34.3660 -87.4630 289° West 399 459 38,000  Level FlightAware ADS-B
Fri 09:05:21 AM 34.3860 -87.5350 289° West 399 459 38,000  Level FlightAware ADS-B
Fri 09:06:01 AM 34.4070 -87.6070 289° West 399 459 38,000  Level FlightAware ADS-B
Fri 09:06:51 AM 34.4320 -87.6970 289° West 399 459 38,000  Level FlightAware ADS-B
Fri 09:07:31 AM 34.4530 -87.7690 289° West 399 459 38,000  Level FlightAware ADS-B
Fri 09:08:11 AM 34.4730 -87.8410 289° West 399 459 38,000  Level FlightAware ADS-B
Fri 09:08:51 AM 34.4940 -87.9130 290° West 399 459 38,000  Level FlightAware ADS-B
Fri 09:09:41 AM 34.5190 -88.0030 289° West 399 459 38,000  Level FlightAware ADS-B
Fri 09:09:56 AM 34.5611 -88.2136 289° West 406 467 38,000  Level Memphis Center
Fri 09:10:56 AM 34.5944 -88.3389 288° West 406 467 38,000  Level Memphis Center
Fri 09:11:56 AM 34.6278 -88.4642 288° West 400 460 38,000  Level Memphis Center
Fri 09:12:56 AM 34.6631 -88.5997 288° West 389 448 38,000  Level Memphis Center
Fri 09:13:56 AM 34.6961 -88.7278 287° West 389 448 38,000  Level Memphis Center
Fri 09:14:56 AM 34.7292 -88.8561 287° West 399 459 38,000  Level Memphis Center
Fri 09:15:56 AM 34.7639 -88.9869 288° West 399 459 38,000  Level Memphis Center
Fri 09:16:56 AM 34.7967 -89.1153 287° West 400 460 38,000  Level Memphis Center
Fri 09:17:56 AM 34.8311 -89.2464 288° West 400 460 38,000  Level Memphis Center
Fri 09:18:56 AM 34.8636 -89.3750 287° West 400 460 38,000  Level Memphis Center
Fri 09:19:56 AM 34.8981 -89.5039 288° West 400 460 38,000  Level Memphis Center
Fri 09:20:56 AM 34.9072 -89.6253 275° West 394 453 38,000  Level Memphis Center
Fri 09:21:56 AM 34.9161 -89.7747 274° West 399 459 38,000  Level Memphis Center
Fri 09:22:56 AM 34.9397 -89.9189 281° West 410 472 38,000  Level Memphis Center
Fri 09:23:56 AM 34.9506 -90.0506 276° West 416 479 38,000  Level Memphis Center
Fri 09:24:56 AM 34.9592 -90.1822 275° West 404 465 38,000  Level Memphis Center
Fri 09:25:56 AM 34.9697 -90.3164 276° West 404 465 38,000  Level Memphis Center
Fri 09:26:56 AM 34.9822 -90.4383 277° West 404 465 38,000  Level Memphis Center
Fri 09:27:56 AM 34.9906 -90.5750 274° West 404 465 38,000  Level Memphis Center
Fri 09:28:56 AM 35.0006 -90.7069 275° West 404 465 38,000  Level Memphis Center
Fri 09:29:56 AM 35.0106 -90.8439 275° West 409 471 38,000  Level Memphis Center
Fri 09:30:56 AM 35.0225 -90.9808 276° West 409 471 38,000  Level Memphis Center
Fri 09:31:56 AM 35.0322 -91.1178 275° West 403 464 38,000  Level Memphis Center
Fri 09:32:56 AM 35.0439 -91.2525 276° West 403 464 38,000  Level Memphis Center
Fri 09:33:56 AM 35.0531 -91.4022 274° West 403 464 38,000  Level Memphis Center
Fri 09:34:56 AM 35.0603 -91.5342 274° West 403 464 38,000  Level Memphis Center
Fri 09:35:56 AM 35.0714 -91.6689 276° West 403 464 38,000  Level Memphis Center
Fri 09:36:56 AM 35.0803 -91.8061 275° West 403 464 38,000  Level Memphis Center
Fri 09:37:56 AM 35.0850 -91.9381 273° West 403 464 38,000  Level Memphis Center
Fri 09:38:56 AM 35.0978 -92.0728 277° West 403 464 38,000  Level Memphis Center
Fri 09:39:56 AM 35.1042 -92.2100 273° West 403 464 38,000  Level Memphis Center
Fri 09:40:56 AM 35.1125 -92.3422 274° West 403 464 38,000  Level Memphis Center
Fri 09:41:56 AM 35.1231 -92.4744 276° West 403 464 38,000  Level Memphis Center
Fri 09:42:56 AM 35.1289 -92.6117 273° West 403 464 38,000  Level Memphis Center
Fri 09:43:56 AM 35.1408 -92.7492 276° West 409 471 38,000  Level Memphis Center
Fri 09:44:56 AM 35.1469 -92.8761 273° West 403 464 38,000  Level Memphis Center
Fri 09:45:56 AM 35.1567 -93.0086 275° West 398 458 38,000  Level Memphis Center
Fri 09:46:56 AM 35.1642 -93.1408 274° West 398 458 38,000  Level Memphis Center
Fri 09:52:51 AM 35.2040 -93.9290 274° West 392 451 38,000  Level FlightAware ADS-B
Fri 09:53:31 AM 35.2080 -94.0090 274° West 392 451 38,000  Level FlightAware ADS-B
Fri 09:54:31 AM 35.2150 -94.1420 274° West 390 449 38,000  Level FlightAware ADS-B
Fri 09:55:11 AM 35.2190 -94.2340 273° West 392 451 38,000  Level FlightAware ADS-B
Fri 09:55:51 AM 35.2230 -94.3110 274° West 392 451 38,000  Level FlightAware ADS-B
Fri 09:56:36 AM 35.2280 -94.4200 273° West 396 456 38,000  Level FlightAware ADS-B
Fri 09:57:16 AM 35.2320 -94.5120 273° West 396 456 38,000  Level FlightAware ADS-B
Fri 09:57:56 AM 35.2360 -94.5960 273° West 398 458 38,000  Level FlightAware ADS-B
Fri 09:58:36 AM 35.2400 -94.6880 273° West 400 460 38,000  Level FlightAware ADS-B
Fri 09:59:21 AM 35.2440 -94.7930 273° West 400 460 38,000  Level FlightAware ADS-B
Fri 09:59:56 AM 35.2480 -94.8710 274° West 401 461 38,000  Level FlightAware ADS-B
Fri 10:00:41 AM 35.2520 -94.9790 273° West 401 461 38,000  Level FlightAware ADS-B
Fri 10:01:26 AM 35.2560 -95.0780 273° West 401 461 38,000  Level FlightAware ADS-B
Fri 10:02:01 AM 35.2580 -95.1490 272° West 401 461 38,000  Level FlightAware ADS-B
Fri 10:02:51 AM 35.2610 -95.2460 272° West 401 461 38,000  Level FlightAware ADS-B
Fri 10:03:31 AM 35.2630 -95.3230 272° West 401 461 38,000  Level FlightAware ADS-B
Fri 10:04:11 AM 35.2650 -95.4000 272° West 401 461 38,000  Level FlightAware ADS-B
Fri 10:05:01 AM 35.2680 -95.4960 272° West 401 461 38,000  Level FlightAware ADS-B
Fri 10:05:41 AM 35.2780 -95.6610 274° West 405 466 38,000  Level FlightAware ADS-B
Fri 10:06:21 AM 35.2810 -95.7510 272° West 406 467 38,000  Level FlightAware ADS-B
Fri 10:07:01 AM 35.2840 -95.8320 273° West 406 467 38,000  Level FlightAware ADS-B
Fri 10:07:46 AM 35.2880 -95.9410 273° West 405 466 38,000  Level FlightAware ADS-B
Fri 10:08:31 AM 35.2920 -96.0480 273° West 407 468 38,000  Level FlightAware ADS-B
Fri 10:09:11 AM 35.2940 -96.1390 272° West 409 471 38,000  Level FlightAware ADS-B
Fri 10:09:51 AM 35.2970 -96.2350 272° West 408 470 38,000  Level FlightAware ADS-B
Fri 10:10:36 AM 35.3010 -96.3360 273° West 408 470 38,000  Level FlightAware ADS-B
Fri 10:11:11 AM 35.3030 -96.4140 272° West 408 470 38,000  Level FlightAware ADS-B
Fri 10:11:56 AM 35.3060 -96.5230 272° West 408 470 38,000  Level FlightAware ADS-B
Fri 10:12:41 AM 35.3090 -96.6240 272° West 409 471 38,000  Level FlightAware ADS-B
Fri 10:13:21 AM 35.3110 -96.7160 272° West 409 471 38,000  Level FlightAware ADS-B
Fri 10:14:01 AM 35.3140 -96.8120 272° West 408 470 38,000  Level FlightAware ADS-B
Fri 10:14:46 AM 35.3160 -96.9120 271° West 404 465 38,000  Level FlightAware ADS-B
Fri 10:15:21 AM 35.3180 -96.9870 272° West 404 465 38,000  Level FlightAware ADS-B
Fri 10:16:11 AM 35.3210 -97.1050 272° West 401 461 38,000  Level FlightAware ADS-B
Fri 10:16:46 AM 35.3230 -97.1860 272° West 400 460 38,000  Level FlightAware ADS-B
Fri 10:17:31 AM 35.3250 -97.2810 272° West 399 459 38,000  Level FlightAware ADS-B
Fri 10:18:16 AM 35.3270 -97.3890 271° West 399 459 38,000  Level FlightAware ADS-B
Fri 10:18:51 AM 35.3290 -97.4640 272° West 400 460 38,000  Level FlightAware ADS-B
Fri 10:19:41 AM 35.3310 -97.5750 271° West 401 461 38,000  Level FlightAware ADS-B
Fri 10:20:16 AM 35.3320 -97.6460 271° West 401 461 38,000  Level FlightAware ADS-B
Fri 10:21:01 AM 35.3350 -97.7540 272° West 399 459 38,000  Level FlightAware ADS-B
Fri 10:21:46 AM 35.3360 -97.8630 271° West 402 463 38,000  Level FlightAware ADS-B
Fri 10:22:26 AM 35.3380 -97.9510 272° West 403 464 38,000  Level FlightAware ADS-B
Fri 10:23:16 AM 35.3400 -98.0580 271° West 404 465 38,000  Level FlightAware ADS-B
Fri 10:24:06 AM 35.3410 -98.1560 271° West 404 465 38,000  Level FlightAware ADS-B
Fri 10:24:41 AM 35.3430 -98.2550 271° West 406 467 38,000  Level FlightAware ADS-B
Fri 10:25:26 AM 35.3430 -98.3510 270° West 406 467 38,000  Level FlightAware ADS-B
Fri 10:26:06 AM 35.3430 -98.4290 270° West 406 467 38,000  Level FlightAware ADS-B
Fri 10:26:56 AM 35.3430 -98.5270 270° West 406 467 38,000  Level FlightAware ADS-B
Fri 10:27:31 AM 35.3470 -98.6420 272° West 405 466 38,000  Level FlightAware ADS-B
Fri 10:28:21 AM 35.3470 -98.7400 270° West 405 466 38,000  Level FlightAware ADS-B
Fri 10:29:11 AM 35.3470 -98.8370 270° West 405 466 38,000  Level FlightAware ADS-B
Fri 10:29:51 AM 35.3470 -98.9150 270° West 405 466 38,000  Level FlightAware ADS-B
Fri 10:30:31 AM 35.3470 -98.9940 270° West 405 466 38,000  Level FlightAware ADS-B
Fri 10:31:11 AM 35.3470 -99.0720 270° West 405 466 38,000  Level FlightAware ADS-B
Fri 10:31:41 AM 35.3470 -99.1300 270° West 405 466 38,000  Level FlightAware ADS-B
Fri 10:32:31 AM 35.3470 -99.2280 270° West 405 466 38,000  Level FlightAware ADS-B
Fri 10:33:11 AM 35.3470 -99.3060 270° West 405 466 38,000  Level FlightAware ADS-B
Fri 10:33:51 AM 35.3470 -99.3840 270° West 405 466 38,000  Level FlightAware ADS-B
Fri 10:34:31 AM 35.3470 -99.4620 270° West 405 466 38,000  Level FlightAware ADS-B
Fri 10:35:21 AM 35.3470 -99.5600 270° West 405 466 38,000  Level FlightAware ADS-B
Fri 10:36:01 AM 35.3470 -99.6380 270° West 405 466 38,000  Level FlightAware ADS-B
Fri 10:36:41 AM 35.3470 -99.7160 270° West 405 466 38,000  Level FlightAware ADS-B
Fri 10:37:21 AM 35.3556 -99.9844 270° West 407 468 38,000  Level Albuquerque Center
Fri 10:38:22 AM 35.3547 -100.1236 270° West 407 468 38,000  Level Albuquerque Center
Fri 10:39:24 AM 35.3550 -100.2653 270° West 412 474 38,000  Level Albuquerque Center
Fri 10:40:26 AM 35.3558 -100.4075 270° West 414 476 38,000  Level Albuquerque Center
Fri 10:41:28 AM 35.3533 -100.5756 269° West 411 473 38,000  Level Albuquerque Center
Fri 10:42:30 AM 35.3528 -100.7197 270° West 414 476 38,000  Level Albuquerque Center
Fri 10:43:32 AM 35.3522 -100.8628 270° West 418 481 38,000  Level Albuquerque Center
Fri 10:44:33 AM 35.3503 -101.0050 269° West 420 483 38,000  Level Albuquerque Center
Fri 10:45:35 AM 35.3492 -101.1472 269° West 419 482 38,000  Level Albuquerque Center
Fri 10:46:37 AM 35.3475 -101.2900 269° West 420 483 38,000  Level Albuquerque Center
Fri 10:47:39 AM 35.3481 -101.4358 270° West 422 486 38,000  Level Albuquerque Center
Fri 10:48:41 AM 35.3464 -101.5778 269° West 417 480 38,000  Level Albuquerque Center
Fri 10:49:43 AM 35.3447 -101.7517 269° West 415 478 38,000  Level Albuquerque Center
Fri 10:50:45 AM 35.3422 -101.8933 269° West 414 476 38,000  Level Albuquerque Center
Fri 10:51:47 AM 35.3361 -102.0397 267° West 412 474 38,000  Level Albuquerque Center
Fri 10:52:49 AM 35.3344 -102.1781 269° West 409 471 38,000  Level Albuquerque Center
Fri 10:53:50 AM 35.3319 -102.3153 269° West 406 467 38,000  Level Albuquerque Center
Fri 10:54:52 AM 35.3281 -102.4531 268° West 407 468 38,000  Level Albuquerque Center
Fri 10:55:54 AM 35.3258 -102.5914 269° West 407 468 38,000  Level Albuquerque Center
Fri 10:56:56 AM 35.3231 -102.7308 269° West 406 467 38,000  Level Albuquerque Center
Fri 10:57:58 AM 35.3192 -102.8939 268° West 407 468 38,000  Level Albuquerque Center
Fri 10:59:00 AM 35.3161 -103.0342 269° West 408 470 38,000  Level Albuquerque Center
Fri 11:00:02 AM 35.3125 -103.1728 268° West 406 467 38,000  Level Albuquerque Center
Fri 11:01:04 AM 35.3081 -103.3133 268° West 408 470 38,000  Level Albuquerque Center
Fri 11:02:07 AM 35.3044 -103.4536 268° West 409 471 38,000  Level Albuquerque Center
Fri 11:03:09 AM 35.3000 -103.5942 268° West 410 472 38,000  Level Albuquerque Center
Fri 11:04:11 AM 35.2961 -103.7339 268° West 409 471 38,000  Level Albuquerque Center
Fri 11:05:13 AM 35.2906 -103.8978 268° West 410 472 38,000  Level Albuquerque Center
Fri 11:06:15 AM 35.2867 -104.0319 268° West 410 472 38,000  Level Albuquerque Center
Fri 11:07:17 AM 35.2817 -104.1714 268° West 410 472 38,000  Level Albuquerque Center
Fri 11:08:19 AM 35.2772 -104.3086 268° West 407 468 38,000  Level Albuquerque Center
Fri 11:09:21 AM 35.2722 -104.4467 267° West 408 470 38,000  Level Albuquerque Center
Fri 11:10:23 AM 35.2647 -104.6106 267° West 409 471 38,000  Level Albuquerque Center
Fri 11:11:25 AM 35.2586 -104.7494 267° West 407 468 38,000  Level Albuquerque Center
Fri 11:17:01 AM 35.2250 -105.5400 267° West 416 479 38,000  Level FlightAware ADS-B
Fri 11:18:01 AM 35.2190 -105.6830 267° West 417 480 38,000  Level FlightAware ADS-B
Fri 11:18:36 AM 35.2140 -105.7600 265° West 417 480 38,000  Level FlightAware ADS-B
Fri 11:19:21 AM 35.2100 -105.8690 267° West 418 481 38,000  Level FlightAware ADS-B
Fri 11:20:06 AM 35.2050 -105.9700 267° West 418 481 38,000  Level FlightAware ADS-B
Fri 11:20:46 AM 35.1990 -106.0710 266° West 416 479 38,000  Level FlightAware ADS-B
Fri 11:21:26 AM 35.1950 -106.1650 267° West 417 480 38,000  Level FlightAware ADS-B
Fri 11:22:11 AM 35.1890 -106.2680 266° West 418 481 38,000  Level FlightAware ADS-B
Fri 11:22:51 AM 35.1840 -106.3630 266° West 419 482 38,000  Level FlightAware ADS-B
Fri 11:23:36 AM 35.1780 -106.4740 266° West 419 482 38,000 706 Level FlightAware ADS-B
Fri 11:24:16 AM 35.1730 -106.5680 266° West 420 483 39,000 1,271 Climbing FlightAware ADS-B
Fri 11:25:01 AM 35.1680 -106.6710 267° West 425 489 39,800 706 Climbing FlightAware ADS-B
Fri 11:25:41 AM 35.1620 -106.7670 266° West 423 487 40,000 150 Climbing FlightAware ADS-B
Fri 11:26:21 AM 35.1570 -106.8620 266° West 424 488 40,000  Level FlightAware ADS-B
Fri 11:27:06 AM 35.1510 -106.9710 266° West 428 493 40,000  Level FlightAware ADS-B
Fri 11:27:46 AM 35.1450 -107.0710 266° West 430 495 40,000  Level FlightAware ADS-B
Fri 11:28:31 AM 35.1380 -107.1780 265° West 430 495 40,000  Level FlightAware ADS-B
Fri 11:29:11 AM 35.1320 -107.2750 266° West 429 494 40,000  Level FlightAware ADS-B
Fri 11:29:51 AM 35.1270 -107.3670 266° West 427 491 40,000  Level FlightAware ADS-B
Fri 11:30:26 AM 35.1220 -107.4510 266° West 428 493 40,000  Level FlightAware ADS-B
Fri 11:31:16 AM 35.1140 -107.5740 265° West 428 493 40,000  Level FlightAware ADS-B
Fri 11:32:01 AM 35.1070 -107.6830 266° West 428 493 40,000  Level FlightAware ADS-B
Fri 11:32:41 AM 35.1010 -107.7780 266° West 428 493 40,000  Level FlightAware ADS-B
Fri 11:33:21 AM 35.0940 -107.8770 265° West 428 493 40,000  Level FlightAware ADS-B
Fri 11:34:06 AM 35.0880 -107.9780 266° West 428 493 40,000  Level FlightAware ADS-B
Fri 11:34:41 AM 35.0820 -108.0540 265° West 428 493 40,000  Level FlightAware ADS-B
Fri 11:35:31 AM 35.0730 -108.1870 265° West 428 493 40,000  Level FlightAware ADS-B
Fri 11:36:16 AM 35.0660 -108.2940 265° West 428 493 40,000  Level FlightAware ADS-B
Fri 11:37:01 AM 35.0580 -108.4060 265° West 426 490 40,000  Level FlightAware ADS-B
Fri 11:38:06 AM 35.0480 -108.5570 265° West 425 489 40,000  Level FlightAware ADS-B
Fri 11:38:56 AM 35.0390 -108.6750 265° West 424 488 40,000  Level FlightAware ADS-B
Fri 11:39:41 AM 35.0320 -108.7750 265° West 424 488 40,000  Level FlightAware ADS-B
Fri 11:40:21 AM 35.0260 -108.8560 265° West 424 488 40,000  Level FlightAware ADS-B
Fri 11:41:01 AM 35.0200 -108.9370 265° West 424 488 40,000  Level FlightAware ADS-B
Fri 11:41:41 AM 35.0150 -109.0180 266° West 424 488 40,000  Level FlightAware ADS-B
Fri 11:42:21 AM 35.0090 -109.0990 265° West 424 488 40,000  Level FlightAware ADS-B
Fri 11:43:01 AM 35.0030 -109.1800 265° West 424 488 40,000  Level FlightAware ADS-B
Fri 11:43:46 AM 34.9970 -109.2620 265° West 424 488 40,000  Level FlightAware ADS-B
Fri 11:44:31 AM 34.9900 -109.3630 265° West 424 488 40,000  Level FlightAware ADS-B
Fri 11:45:11 AM 34.9840 -109.4440 265° West 424 488 40,000  Level FlightAware ADS-B
Fri 11:45:51 AM 34.9780 -109.5250 265° West 424 488 40,000  Level FlightAware ADS-B
Fri 11:46:31 AM 34.9720 -109.6060 265° West 424 488 40,000  Level FlightAware ADS-B
Fri 11:47:11 AM 34.9670 -109.6870 266° West 424 488 40,000  Level FlightAware ADS-B
Fri 11:48:01 AM 34.9590 -109.7890 265° West 424 488 40,000  Level FlightAware ADS-B
Fri 11:48:41 AM 34.9530 -109.8700 265° West 424 488 40,000  Level FlightAware ADS-B
Fri 11:49:11 AM 34.9228 -110.1336 265° West 430 495 40,000  Level Los Angeles Center
Fri 11:49:41 AM 34.9206 -110.2139 268° West 436 502 40,000  Level Albuquerque Center
Fri 11:55:01 AM 34.8490 -110.9870 268° West 426 490 40,000  Level FlightAware ADS-B
Fri 11:55:36 AM 34.8420 -111.0620 264° West 426 490 40,000  Level FlightAware ADS-B
Fri 11:56:26 AM 34.8310 -111.1640 263° West 426 490 40,000  Level FlightAware ADS-B
Fri 11:56:56 AM 34.8240 -111.2560 265° West 426 490 40,000  Level FlightAware ADS-B
Fri 11:57:46 AM 34.8120 -111.3830 263° West 426 490 40,000  Level FlightAware ADS-B
Fri 11:58:26 AM 34.8030 -111.4780 263° West 426 490 40,000  Level FlightAware ADS-B
Fri 11:59:11 AM 34.7930 -111.5840 263° West 428 493 40,000  Level FlightAware ADS-B
Fri 11:59:51 AM 34.7830 -111.6840 263° West 432 497 40,000  Level FlightAware ADS-B
Fri 12:00:36 PM 34.7730 -111.7910 264° West 435 501 40,000  Level FlightAware ADS-B
Fri 12:01:11 PM 34.7650 -111.8700 263° West 437 503 40,000  Level FlightAware ADS-B
Fri 12:02:01 PM 34.7520 -111.9970 263° West 441 507 40,000  Level FlightAware ADS-B
Fri 12:02:41 PM 34.7420 -112.0940 263° West 443 510 40,000  Level FlightAware ADS-B
Fri 12:03:21 PM 34.7260 -112.1930 259° West 445 512 40,000  Level FlightAware ADS-B
Fri 12:04:06 PM 34.7090 -112.3040 259° West 446 513 40,000  Level FlightAware ADS-B
Fri 12:04:46 PM 34.6940 -112.4030 260° West 447 514 40,000  Level FlightAware ADS-B
Fri 12:05:31 PM 34.6770 -112.5160 260° West 447 514 40,000  Level FlightAware ADS-B
Fri 12:06:11 PM 34.6610 -112.6160 259° West 448 516 40,000  Level FlightAware ADS-B
Fri 12:06:46 PM 34.6470 -112.7020 259° West 448 516 40,000  Level FlightAware ADS-B
Fri 12:07:26 PM 34.6320 -112.7960 259° West 448 516 40,000  Level FlightAware ADS-B
Fri 12:08:11 PM 34.6150 -112.9050 259° West 447 514 40,000  Level FlightAware ADS-B
Fri 12:08:51 PM 34.5990 -113.0020 259° West 447 514 40,000  Level FlightAware ADS-B
Fri 12:09:36 PM 34.5800 -113.1200 259° West 447 514 40,000  Level FlightAware ADS-B
Fri 12:10:16 PM 34.5640 -113.2140 258° West 447 514 40,000  Level FlightAware ADS-B
Fri 12:10:56 PM 34.5480 -113.3130 259° West 447 514 40,000  Level FlightAware ADS-B
Fri 12:11:41 PM 34.5290 -113.4260 258° West 448 516 40,000  Level FlightAware ADS-B
Fri 12:12:21 PM 34.5120 -113.5230 258° West 448 516 40,000  Level FlightAware ADS-B
Fri 12:13:01 PM 34.4960 -113.6210 259° West 447 514 40,000  Level FlightAware ADS-B
Fri 12:13:46 PM 34.4770 -113.7320 258° West 448 516 40,000  Level FlightAware ADS-B
Fri 12:14:41 PM 34.4550 -113.8600 258° West 448 516 40,000  Level FlightAware ADS-B
Fri 12:15:16 PM 34.4410 -113.9450 259° West 450 518 40,000  Level FlightAware ADS-B
Fri 12:16:06 PM 34.4180 -114.0740 258° West 452 520 40,000  Level FlightAware ADS-B
Fri 12:16:51 PM 34.3980 -114.1900 258° West 454 522 40,000  Level FlightAware ADS-B
Fri 12:17:31 PM 34.3820 -114.2810 258° West 454 522 40,000  Level FlightAware ADS-B
Fri 12:18:11 PM 34.3640 -114.3870 258° West 456 525 40,000  Level FlightAware ADS-B
Fri 12:18:56 PM 34.3440 -114.4980 258° West 456 525 40,000  Level FlightAware ADS-B
Fri 12:19:36 PM 34.3270 -114.5980 258° West 456 525 40,000  Level FlightAware ADS-B
Fri 12:20:21 PM 34.3070 -114.7020 257° West 456 525 40,000  Level FlightAware ADS-B
Fri 12:21:01 PM 34.2880 -114.8120 258° West 460 529 40,000 -150 Level FlightAware ADS-B
Fri 12:21:41 PM 34.2700 -114.9130 258° West 456 525 39,800 -675 Descending FlightAware ADS-B
Fri 12:22:21 PM 34.2540 -115.0030 258° West 456 525 39,100 -1,129 Descending FlightAware ADS-B
Fri 12:23:06 PM 34.2320 -115.1220 257° West 454 522 38,200 -1,341 Descending FlightAware ADS-B
Fri 12:23:46 PM 34.2140 -115.2200 258° West 458 527 37,200 -1,200 Descending FlightAware ADS-B
Fri 12:24:31 PM 34.1940 -115.3330 258° West 466 536 36,500 -847 Descending FlightAware ADS-B
Fri 12:25:11 PM 34.1740 -115.4380 257° West 466 536 36,000 -750 Descending FlightAware ADS-B
Fri 12:25:51 PM 34.1570 -115.5310 258° West 462 532 35,500 -918 Descending FlightAware ADS-B
Fri 12:26:36 PM 34.1350 -115.6490 257° West 461 531 34,700 -988 Descending FlightAware ADS-B
Fri 12:27:16 PM 34.1170 -115.7470 258° West 459 528 34,100 -900 Descending FlightAware ADS-B
Fri 12:27:56 PM 34.0990 -115.8520 258° West 456 525 33,500 -847 Descending FlightAware ADS-B
Fri 12:28:41 PM 34.0840 -115.9610 261° West 452 520 32,900 -1,000 Descending FlightAware ADS-B
Fri 12:29:26 PM 34.0680 -116.0720 260° West 439 505 32,000 -1,624 Descending FlightAware ADS-B
Fri 12:30:06 PM 34.0540 -116.1670 260° West 429 494 30,600 -2,118 Descending FlightAware ADS-B
Fri 12:30:51 PM 34.0380 -116.2720 260° West 418 481 29,000 -1,976 Descending FlightAware ADS-B
Fri 12:31:31 PM 34.0240 -116.3600 259° West 410 472 27,800 -1,875 Descending FlightAware ADS-B
Fri 12:32:11 PM 34.0100 -116.4500 259° West 403 464 26,500 -1,906 Descending FlightAware ADS-B
Fri 12:32:56 PM 34.0000 -116.5480 263° West 394 453 25,100 -1,906 Descending FlightAware ADS-B
Fri 12:33:36 PM 33.9930 -116.6380 265° West 389 448 23,800 -1,906 Descending FlightAware ADS-B
Fri 12:34:21 PM 33.9860 -116.7310 265° West 382 440 22,400 -1,835 Descending FlightAware ADS-B
Fri 12:35:01 PM 33.9790 -116.8160 264° West 377 434 21,200 -1,800 Descending FlightAware ADS-B
Fri 12:35:41 PM 33.9720 -116.9000 264° West 372 428 20,000 -1,725 Descending FlightAware ADS-B
Fri 12:36:21 PM 33.9650 -116.9810 264° West 368 423 18,900 -1,765 Descending FlightAware ADS-B
Fri 12:37:06 PM 33.9570 -117.0750 264° West 365 420 17,500 -1,533 Descending FlightAware ADS-B
Fri 12:37:51 PM 33.9500 -117.1630 265° West 365 420 16,600 -1,271 Descending FlightAware ADS-B
Fri 12:38:31 PM 33.9430 -117.2450 264° West 363 418 15,700 -1,500 Descending FlightAware ADS-B
Fri 12:39:11 PM 33.9360 -117.3230 264° West 360 414 14,600 -1,624 Descending FlightAware ADS-B
Fri 12:39:56 PM 33.9430 -117.4080 276° West 313 360 13,400 -1,341 Descending FlightAware ADS-B
Fri 12:40:36 PM 33.9660 -117.4700 294° West 302 348 12,700 -1,129 Descending FlightAware ADS-B
Fri 12:41:21 PM 33.9900 -117.5380 293° West 298 343 11,800 -1,271 Descending FlightAware ADS-B
Fri 12:42:01 PM 34.0110 -117.6000 292° West 297 342 10,900 -1,200 Descending FlightAware ADS-B
Fri 12:42:41 PM 34.0090 -117.6650 268° West 295 339 10,200 -943 Descending FlightAware ADS-B
Fri 12:43:11 PM 34.0040 -117.7130 263° West 287 330 9,800 -1,100 Descending FlightAware ADS-B
Fri 12:43:41 PM 33.9990 -117.7620 263° West 291 335 9,100 -1,050 Descending FlightAware ADS-B
Fri 12:43:51 PM 33.9980 -117.7770 265° West 295 339 9,100 -900 Level FlightAware ADS-B
Fri 12:44:21 PM 33.9930 -117.8240 263° West 271 312 8,500 -1,300 Descending FlightAware ADS-B
Fri 12:44:51 PM 33.9890 -117.8670 264° West 259 298 7,800 -1,527 Descending FlightAware ADS-B
Fri 12:45:16 PM 33.9850 -117.9050 263° West 260 299 7,100 -1,309 Descending FlightAware ADS-B
Fri 12:45:46 PM 33.9810 -117.9460 263° West 234 269 6,600 -1,067 Descending FlightAware ADS-B
Fri 12:46:01 PM 33.9790 -117.9630 262° West 223 257 6,300 -900 Descending FlightAware ADS-B
Fri 12:46:26 PM 33.9760 -117.9940 263° West 208 239 6,000 -764 Descending FlightAware ADS-B
Fri 12:46:56 PM 33.9730 -118.0280 264° West 204 235 5,600 -764 Descending FlightAware ADS-B
Fri 12:47:21 PM 33.9700 -118.0550 262° West 203 234 5,300 -720 Descending FlightAware ADS-B
Fri 12:47:46 PM 33.9680 -118.0830 265° West 203 234 5,000 -873 Descending FlightAware ADS-B
Fri 12:48:16 PM 33.9640 -118.1180 262° West 205 236 4,500 -1,100 Descending FlightAware ADS-B
Fri 12:48:46 PM 33.9610 -118.1500 264° West 207 238 3,900 -1,091 Descending FlightAware ADS-B
Fri 12:49:11 PM 33.9580 -118.1790 263° West 192 221 3,500 -960 Descending FlightAware ADS-B
Fri 12:49:36 PM 33.9550 -118.2040 262° West 174 200 3,100 -900 Descending FlightAware ADS-B
Fri 12:50:11 PM 33.9520 -118.2340 263° West 172 198 2,600 -900 Descending FlightAware ADS-B
Fri 12:50:36 PM 33.9500 -118.2580 264° West 164 189 2,200 -480 Descending FlightAware ADS-B
Fri 12:51:01 PM 33.9480 -118.2800 264° West 164 189 2,200 -923 Level FlightAware ADS-B
Fri 12:51:28 PM 33.9461 -118.3036 264° West 171 197 1,400 -1,079 Descending Los Angeles Center
Fri 12:52:30 PM 33.9414 -118.3533 263° West 161 185 600 -629 Descending Los Angeles Center
Fri 12:53:32 PM 33.9364 -118.4050 263° West 152 175 100 -484 Descending Los Angeles Center
Fri 12:55:00 PM 33.9333 -118.4000 270° West  Level FlightAware Approximate

Login

Don't have an account? Register now (free) for customized features, flight alerts, and more!